Time;durP1;ratioP1;P1;durP2;ratioP2;P2;SDS_P1;SDS_P2;PMS_P1;PMS_P2;Temp;Humidity;BMP_temperature;BMP_pressure;BME280_temperature;BME280_humidity;BME280_pressure;Samples;Min_cycle;Max_cycle;Signal;HPM_P1;HPM_P2
2020/12/10 00:01:40;0.00;0.00;0.62;0.00;0.00;0.62;;;;;12.10;1.00;;;;;;2273012;61;1271;-88
2020/12/10 00:04:06;0.00;0.00;0.62;0.00;0.00;0.62;;;;;12.20;1.00;;;;;;2273039;61;1163;-89
2020/12/10 00:06:33;27591.00;0.09;48.41;0.00;0.00;0.62;;;;;12.00;1.00;;;;;;2272998;61;2004;-88
2020/12/10 00:08:59;4729.00;0.02;8.82;0.00;0.00;0.62;;;;;11.80;1.00;;;;;;2273033;61;1015;-88
2020/12/10 00:11:26;0.00;0.00;0.62;0.00;0.00;0.62;;;;;11.80;1.00;;;;;;2273021;61;1102;-89
2020/12/10 00:13:52;60010.00;0.20;104.49;0.00;0.00;0.62;;;;;11.90;1.00;;;;;;2272964;61;1311;-89
2020/12/10 00:16:19;0.00;0.00;0.62;0.00;0.00;0.62;;;;;12.10;1.00;;;;;;2273031;61;1129;-88
2020/12/10 00:18:46;0.00;0.00;0.62;0.00;0.00;0.62;;;;;12.10;1.00;;;;;;2272974;61;1075;-88
2020/12/10 00:21:19;0.00;0.00;0.62;0.00;0.00;0.62;;;;;12.10;1.00;;;;;;2272924;61;1128;-87
2020/12/10 00:23:45;0.00;0.00;0.62;0.00;0.00;0.62;;;;;12.20;1.00;;;;;;2273132;61;1451;-88
2020/12/10 00:26:12;0.00;0.00;0.62;0.00;0.00;0.62;;;;;12.10;1.00;;;;;;2272933;61;1915;-88
2020/12/10 00:28:38;10946.00;0.04;19.59;0.00;0.00;0.62;;;;;12.20;1.00;;;;;;2272956;61;1123;-87
2020/12/10 00:31:05;25214.00;0.08;44.30;0.00;0.00;0.62;;;;;12.20;1.00;;;;;;2272906;61;1108;-88
2020/12/10 00:33:31;42373.00;0.14;73.99;0.00;0.00;0.62;;;;;12.30;1.00;;;;;;2272925;61;1395;-88
2020/12/10 00:35:59;79469.00;0.26;138.12;0.00;0.00;0.62;;;;;12.20;1.00;;;;;;2272951;61;1122;-88
2020/12/10 00:38:27;0.00;0.00;0.62;0.00;0.00;0.62;;;;;12.20;1.00;;;;;;2272934;61;1047;-87
2020/12/10 00:40:54;0.00;0.00;0.62;0.00;0.00;0.62;;;;;12.20;1.00;;;;;;2272930;61;1059;-88
2020/12/10 00:43:20;0.00;0.00;0.62;0.00;0.00;0.62;;;;;12.10;1.00;;;;;;2272884;61;1285;-87
2020/12/10 00:45:47;0.00;0.00;0.62;0.00;0.00;0.62;;;;;12.20;1.00;;;;;;2272906;61;2000;-88
2020/12/10 00:48:13;48870.00;0.16;85.23;0.00;0.00;0.62;;;;;12.10;1.00;;;;;;2272894;61;1108;-87
2020/12/10 00:50:40;0.00;0.00;0.62;0.00;0.00;0.62;;;;;12.20;1.00;;;;;;2272911;61;1087;-88
2020/12/10 00:53:08;0.00;0.00;0.62;0.00;0.00;0.62;;;;;12.20;1.00;;;;;;2272868;61;1313;-88
2020/12/10 00:55:34;0.00;0.00;0.62;0.00;0.00;0.62;;;;;12.30;1.00;;;;;;2272882;61;1166;-88
2020/12/10 00:58:01;73544.00;0.25;127.88;0.00;0.00;0.62;;;;;12.30;1.00;;;;;;2272756;61;1124;-88
2020/12/10 01:00:27;0.00;0.00;0.62;0.00;0.00;0.62;;;;;12.40;1.00;;;;;;2272882;61;1107;-88
2020/12/10 01:02:54;0.00;0.00;0.62;0.00;0.00;0.62;;;;;12.40;1.00;;;;;;2272817;61;1414;-87
2020/12/10 01:05:20;0.00;0.00;0.62;0.00;0.00;0.62;;;;;12.40;1.00;;;;;;2272833;61;1994;-88
2020/12/10 01:07:49;963.00;0.00;2.29;0.00;0.00;0.62;;;;;12.30;1.00;;;;;;2272861;61;1050;-88
2020/12/10 01:10:17;0.00;0.00;0.62;0.00;0.00;0.62;;;;;12.30;1.00;;;;;;2272861;61;1023;-89
2020/12/10 01:12:43;37820.00;0.13;66.12;0.00;0.00;0.62;;;;;12.10;1.00;;;;;;2272802;61;1295;-87
2020/12/10 01:15:10;0.00;0.00;0.62;0.00;0.00;0.62;;;;;12.00;1.00;;;;;;2272834;61;1038;-88
2020/12/10 01:17:36;45205.00;0.15;78.89;0.00;0.00;0.62;;;;;12.00;1.00;;;;;;2272815;61;1060;-88
2020/12/10 01:20:04;0.00;0.00;0.62;0.00;0.00;0.62;;;;;12.00;1.00;;;;;;2272851;61;1032;-88
2020/12/10 01:22:30;0.00;0.00;0.62;0.00;0.00;0.62;;;;;12.10;1.00;;;;;;2272796;61;1425;-88
2020/12/10 01:24:57;42107.00;0.14;73.53;0.00;0.00;0.62;;;;;12.20;1.00;;;;;;2272800;61;1126;-87
2020/12/10 01:27:24;88154.00;0.29;153.12;0.00;0.00;0.62;;;;;12.30;1.00;;;;;;2272788;61;1930;-87
2020/12/10 01:29:51;0.00;0.00;0.62;0.00;0.00;0.62;;;;;12.30;1.00;;;;;;2272719;61;1122;-88
2020/12/10 01:32:18;76002.00;0.25;132.13;0.00;0.00;0.62;;;;;12.40;1.00;;;;;;2272791;61;1390;-87
2020/12/10 01:34:44;0.00;0.00;0.62;0.00;0.00;0.62;;;;;12.40;1.00;;;;;;2273509;61;1071;-88
2020/12/10 01:37:11;73383.00;0.24;127.61;0.00;0.00;0.62;;;;;12.40;1.00;;;;;;2273496;61;1161;-87
2020/12/10 01:39:38;39448.00;0.13;68.93;0.00;0.00;0.62;;;;;12.40;1.00;;;;;;2273512;61;1058;-88
2020/12/10 01:42:04;0.00;0.00;0.62;0.00;0.00;0.62;;;;;12.40;1.00;;;;;;2273393;61;1310;-87
2020/12/10 01:44:32;0.00;0.00;0.62;0.00;0.00;0.62;;;;;12.20;1.00;;;;;;2273448;61;1134;-88
2020/12/10 01:46:58;20665.00;0.07;36.42;0.00;0.00;0.62;;;;;12.20;1.00;;;;;;2273384;61;1923;-87
2020/12/10 01:49:25;40141.00;0.13;70.13;0.00;0.00;0.62;;;;;12.00;1.00;;;;;;2273428;61;1107;-88
2020/12/10 01:51:52;41520.00;0.14;72.52;0.00;0.00;0.62;;;;;12.00;1.00;;;;;;2273391;61;1293;-88
2020/12/10 01:54:18;0.00;0.00;0.62;0.00;0.00;0.62;;;;;12.00;1.00;;;;;;2273422;61;1009;-87
2020/12/10 01:56:45;0.00;0.00;0.62;0.00;0.00;0.62;;;;;12.00;1.00;;;;;;2273433;61;1123;-88
2020/12/10 01:59:13;0.00;0.00;0.62;0.00;0.00;0.62;;;;;11.90;1.00;;;;;;2273395;61;1055;-88
2020/12/10 02:01:40;53587.00;0.18;93.39;0.00;0.00;0.62;;;;;11.80;1.00;;;;;;2273404;61;1360;-87
2020/12/10 02:04:25;0.00;0.00;0.62;0.00;0.00;0.62;;;;;11.80;1.00;;;;;;2273432;61;1050;-87
2020/12/10 02:06:52;93347.00;0.31;162.09;18105.00;0.06;31.99;;;;;11.90;1.00;;;;;;2273356;61;1993;-87
2020/12/10 02:09:18;0.00;0.00;0.62;0.00;0.00;0.62;;;;;12.00;1.00;;;;;;2273404;61;1133;-87
2020/12/10 02:11:44;50266.00;0.17;87.65;0.00;0.00;0.62;;;;;12.00;1.00;;;;;;2273300;61;1576;-88
2020/12/10 02:14:11;0.00;0.00;0.62;0.00;0.00;0.62;;;;;12.10;1.00;;;;;;2273353;61;1067;-89
2020/12/10 02:16:38;0.00;0.00;0.62;0.00;0.00;0.62;;;;;12.10;1.00;;;;;;2273360;61;1099;-87
2020/12/10 02:19:05;0.00;0.00;0.62;0.00;0.00;0.62;;;;;12.00;1.00;;;;;;2273392;61;1010;-88
2020/12/10 02:21:32;54042.00;0.18;94.18;0.00;0.00;0.62;;;;;12.00;1.00;;;;;;2273362;61;968;-87
2020/12/10 02:23:59;103289.00;0.34;179.25;0.00;0.00;0.62;;;;;11.90;1.00;;;;;;2273328;61;1338;-87
2020/12/10 02:26:27;0.00;0.00;0.62;0.00;0.00;0.62;;;;;11.80;1.00;;;;;;2273295;61;1915;-87
2020/12/10 02:28:59;197348.00;0.66;341.36;0.00;0.00;0.62;;;;;11.80;1.00;;;;;;2273299;61;1130;-88
2020/12/10 02:31:30;17056.00;0.06;30.17;0.00;0.00;0.62;;;;;11.30;1.00;;;;;;2273307;61;1029;-88
2020/12/10 02:34:00;21587.00;0.07;38.02;0.00;0.00;0.62;;;;;11.10;1.00;;;;;;2273297;61;1353;-87
2020/12/10 02:36:27;0.00;0.00;0.62;0.00;0.00;0.62;;;;;11.30;1.00;;;;;;2273317;61;1081;-88
2020/12/10 02:38:54;49824.00;0.17;86.88;0.00;0.00;0.62;;;;;11.40;1.00;;;;;;2273322;61;1023;-88
2020/12/10 02:41:22;13449.00;0.04;23.92;0.00;0.00;0.62;;;;;11.10;1.00;;;;;;2273275;61;1084;-87
2020/12/10 02:43:49;189044.00;0.63;327.06;29428.00;0.10;51.59;;;;;11.30;1.00;;;;;;2273208;61;1260;-87
2020/12/10 02:46:15;24546.00;0.08;43.14;0.00;0.00;0.62;;;;;11.20;1.00;;;;;;2273229;61;2010;-87
2020/12/10 02:52:04;0.00;0.00;0.62;0.00;0.00;0.62;;;;;10.40;1.00;;;;;;2273267;61;1305;-86
2020/12/10 02:54:30;88275.00;0.29;153.33;0.00;0.00;0.62;;;;;10.70;1.00;;;;;;2273239;61;1134;-85
2020/12/10 02:57:01;0.00;0.00;0.62;0.00;0.00;0.62;;;;;11.00;1.00;;;;;;2273215;61;1146;-86
2020/12/10 02:59:28;44043.00;0.15;76.88;0.00;0.00;0.62;;;;;11.00;1.00;;;;;;2273198;61;1742;-85
2020/12/10 03:01:54;107832.00;0.36;187.09;0.00;0.00;0.62;;;;;11.10;1.00;;;;;;2273163;61;1285;-86
2020/12/10 03:04:20;0.00;0.00;0.62;0.00;0.00;0.62;;;;;11.40;1.00;;;;;;2273195;61;933;-86
2020/12/10 03:10:09;173905.00;0.58;300.99;0.00;0.00;0.62;;;;;11.20;1.00;;;;;;2273181;61;645;-84
2020/12/10 03:12:36;298001.00;0.99;514.48;0.00;0.00;0.62;;;;;10.10;1.00;;;;;;2273110;61;1276;-86
2020/12/10 03:15:32;475456.00;1.58;819.58;8947.00;0.03;16.12;;;;;9.90;1.00;;;;;;2273066;61;1743;-86
2020/12/10 03:17:59;89479.00;0.30;155.41;0.00;0.00;0.62;;;;;10.40;1.00;;;;;;2273116;61;1153;-85
2020/12/10 03:20:26;84376.00;0.28;146.60;0.00;0.00;0.62;;;;;10.10;1.00;;;;;;2273060;61;1041;-86
2020/12/10 03:22:53;20571.00;0.07;36.26;0.00;0.00;0.62;;;;;10.00;1.00;;;;;;2273013;61;1384;-87
2020/12/10 03:28:43;29386.00;0.10;51.52;0.00;0.00;0.62;;;;;10.80;1.00;;;;;;2273125;61;660;-86
2020/12/10 03:34:32;0.00;0.00;0.62;0.00;0.00;0.62;;;;;10.90;1.00;;;;;;2272945;61;736;-86
2020/12/10 03:37:00;21654.00;0.07;38.13;0.00;0.00;0.62;;;;;11.00;1.00;;;;;;2273068;61;1133;-86
2020/12/10 03:39:28;52466.00;0.17;91.45;0.00;0.00;0.62;;;;;10.30;1.00;;;;;;2273014;61;1028;-85
2020/12/10 03:41:56;41931.00;0.14;73.23;0.00;0.00;0.62;;;;;10.40;1.00;;;;;;2273017;61;1323;-86
2020/12/10 03:44:24;9387.00;0.03;16.89;0.00;0.00;0.62;;;;;10.60;1.00;;;;;;2273036;61;1022;-85
2020/12/10 03:46:50;35562.00;0.12;62.21;0.00;0.00;0.62;;;;;10.80;1.00;;;;;;2272953;61;2021;-86
2020/12/10 03:49:17;0.00;0.00;0.62;0.00;0.00;0.62;;;;;11.10;1.00;;;;;;2273028;61;1141;-85
2020/12/10 03:51:43;14419.00;0.05;25.60;0.00;0.00;0.62;;;;;10.90;1.00;;;;;;2272996;61;1369;-86
2020/12/10 03:54:10;47955.00;0.16;83.65;0.00;0.00;0.62;;;;;10.00;1.00;;;;;;2272962;61;1727;-86
2020/12/10 03:56:36;59616.00;0.20;103.81;0.00;0.00;0.62;;;;;9.10;1.00;;;;;;2272849;61;1103;-85
2020/12/10 03:59:04;352905.00;1.18;608.85;0.00;0.00;0.62;;;;;8.50;1.00;;;;;;2273003;61;1109;-85
2020/12/10 04:01:31;28757.00;0.10;50.43;0.00;0.00;0.62;;;;;8.80;1.00;;;;;;2273000;61;1001;-85
2020/12/10 04:03:58;112028.00;0.37;194.33;0.00;0.00;0.62;;;;;8.90;1.00;;;;;;2272950;61;1233;-85
2020/12/10 04:06:25;98592.00;0.33;171.14;0.00;0.00;0.62;;;;;9.20;1.00;;;;;;2272912;61;1924;-84
2020/12/10 04:08:51;20643.00;0.07;36.38;0.00;0.00;0.62;;;;;8.80;1.00;;;;;;2272935;61;1118;-85
2020/12/10 04:11:18;159846.00;0.53;276.77;0.00;0.00;0.62;;;;;8.80;1.00;;;;;;2272399;61;1604;-85
2020/12/10 04:13:45;4214.00;0.01;7.92;0.00;0.00;0.62;;;;;8.50;1.00;;;;;;2272890;61;1320;-85
2020/12/10 04:16:11;0.00;0.00;0.62;0.00;0.00;0.62;;;;;9.00;1.00;;;;;;2272898;61;1063;-86
2020/12/10 04:18:41;15837.00;0.05;28.06;0.00;0.00;0.62;;;;;8.50;1.00;;;;;;2272867;61;1127;-84
2020/12/10 04:21:09;0.00;0.00;0.62;0.00;0.00;0.62;;;;;8.30;1.00;;;;;;2272935;61;916;-86
2020/12/10 04:23:36;14032.00;0.05;24.93;0.00;0.00;0.62;;;;;8.10;1.00;;;;;;2272939;61;1313;-85
2020/12/10 04:26:02;58929.00;0.20;102.63;0.00;0.00;0.62;;;;;7.80;1.00;;;;;;2272862;61;1905;-88
2020/12/10 04:28:29;0.00;0.00;0.62;0.00;0.00;0.62;;;;;7.50;1.00;;;;;;2272935;61;1208;-86
2020/12/10 04:30:56;18940.00;0.06;33.43;0.00;0.00;0.62;;;;;7.90;1.00;;;;;;2272861;61;1001;-86
2020/12/10 04:33:23;0.00;0.00;0.62;0.00;0.00;0.62;;;;;8.60;1.00;;;;;;2272864;61;1356;-86
2020/12/10 04:35:50;61161.00;0.20;106.48;0.00;0.00;0.62;;;;;9.30;1.00;;;;;;2272874;61;1070;-85
2020/12/10 04:38:17;64550.00;0.22;112.34;0.00;0.00;0.62;;;;;9.70;1.00;;;;;;2272866;61;1136;-86
2020/12/10 04:40:43;80484.00;0.27;139.87;0.00;0.00;0.62;;;;;9.70;1.00;;;;;;2272893;61;919;-86
2020/12/10 04:43:12;33714.00;0.11;59.01;0.00;0.00;0.62;;;;;9.50;1.00;;;;;;2272823;61;1404;-85
2020/12/10 04:45:39;0.00;0.00;0.62;0.00;0.00;0.62;;;;;8.70;1.00;;;;;;2272839;61;1917;-87
2020/12/10 04:48:05;63122.00;0.21;109.87;0.00;0.00;0.62;;;;;8.10;1.00;;;;;;2272807;61;1049;-87
2020/12/10 04:50:35;89788.00;0.30;155.94;0.00;0.00;0.62;;;;;7.80;1.00;;;;;;2272888;61;1020;-88
2020/12/10 04:53:04;15522.00;0.05;27.51;0.00;0.00;0.62;;;;;7.20;1.00;;;;;;2272767;61;1338;-85
2020/12/10 04:55:31;86525.00;0.29;150.31;0.00;0.00;0.62;;;;;6.50;1.00;;;;;;2272777;61;986;-84
2020/12/10 04:57:59;116022.00;0.39;201.22;0.00;0.00;0.62;;;;;6.10;1.00;;;;;;2272817;61;1124;-85
2020/12/10 05:00:26;12279.00;0.04;21.90;0.00;0.00;0.62;;;;;6.10;1.00;;;;;;2272778;61;1106;-86
2020/12/10 05:02:53;23881.00;0.08;41.99;0.00;0.00;0.62;;;;;6.50;1.00;;;;;;2272781;61;1279;-87
2020/12/10 05:05:27;112092.00;0.37;194.44;0.00;0.00;0.62;;;;;6.70;1.00;;;;;;2272759;61;1059;-87
2020/12/10 05:07:55;92366.00;0.31;160.39;0.00;0.00;0.62;;;;;7.60;1.00;;;;;;2273000;61;1923;-87
2020/12/10 05:10:22;39332.00;0.13;68.73;0.00;0.00;0.62;;;;;7.50;1.00;;;;;;2273530;61;1029;-86
2020/12/10 05:12:52;153791.00;0.51;266.34;0.00;0.00;0.62;;;;;7.30;1.00;;;;;;2273490;61;1296;-86
2020/12/10 05:15:31;18548.00;0.06;32.76;0.00;0.00;0.62;;;;;6.80;1.00;;;;;;2273441;61;1114;-86
2020/12/10 05:18:04;73046.00;0.24;127.02;0.00;0.00;0.62;;;;;5.80;1.00;;;;;;2273537;61;1029;-86
2020/12/10 05:20:43;123851.00;0.41;214.72;0.00;0.00;0.62;;;;;5.20;1.00;;;;;;2273484;61;1076;-86
2020/12/10 05:23:09;155045.00;0.52;268.50;0.00;0.00;0.62;;;;;5.10;1.00;;;;;;2273475;61;1444;-86
2020/12/10 05:25:48;28306.00;0.09;49.65;0.00;0.00;0.62;;;;;5.10;1.20;;;;;;2273051;61;1992;-85
2020/12/10 05:28:15;19558.00;0.07;34.50;0.00;0.00;0.62;;;;;5.20;1.00;;;;;;2273299;61;1008;-86
2020/12/10 05:30:44;83897.00;0.28;145.77;0.00;0.00;0.62;;;;;5.10;1.00;;;;;;2273253;61;1117;-86
2020/12/10 05:33:12;70872.00;0.24;123.27;0.00;0.00;0.62;;;;;4.80;1.50;;;;;;2273048;61;1281;-86
2020/12/10 05:35:39;171983.00;0.57;297.68;0.00;0.00;0.62;;;;;4.70;1.70;;;;;;2273240;61;1058;-87
2020/12/10 05:38:11;103764.00;0.35;180.07;0.00;0.00;0.62;;;;;4.70;1.90;;;;;;2272480;61;997;-86
2020/12/10 05:40:38;17930.00;0.06;31.69;0.00;0.00;0.62;;;;;5.00;4.10;;;;;;2273007;61;951;-86
2020/12/10 05:43:06;88252.00;0.29;153.29;0.00;0.00;0.62;;;;;5.60;2.50;;;;;;2273059;61;1392;-86
2020/12/10 05:45:38;186224.00;0.62;322.21;0.00;0.00;0.62;;;;;5.30;1.00;;;;;;2273186;61;1116;-86
2020/12/10 05:48:05;49135.00;0.16;85.69;0.00;0.00;0.62;;;;;5.10;1.00;;;;;;2273130;61;963;-87
2020/12/10 05:50:34;42865.00;0.14;74.84;0.00;0.00;0.62;;;;;4.80;1.00;;;;;;2273221;61;1081;-86
2020/12/10 05:53:08;226279.00;0.75;391.15;0.00;0.00;0.62;;;;;4.30;2.30;;;;;;2273167;61;1358;-87
2020/12/10 05:55:36;97928.00;0.33;170.00;0.00;0.00;0.62;;;;;3.80;4.10;;;;;;2273210;61;1361;-86
2020/12/10 05:58:06;63434.00;0.21;110.41;0.00;0.00;0.62;;;;;3.80;5.00;;;;;;2273178;61;1022;-87
2020/12/10 06:00:33;217501.00;0.73;376.04;0.00;0.00;0.62;;;;;3.90;4.40;;;;;;2273238;61;1064;-87
2020/12/10 06:03:00;183592.00;0.61;317.68;0.00;0.00;0.62;;;;;4.30;3.90;;;;;;2273187;61;1470;-86
2020/12/10 06:05:27;66343.00;0.22;115.44;0.00;0.00;0.62;;;;;4.30;3.70;;;;;;2273276;61;1050;-87
2020/12/10 06:08:02;61832.00;0.21;107.64;0.00;0.00;0.62;;;;;4.90;5.20;;;;;;2273248;61;2004;-86
2020/12/10 06:10:32;52950.00;0.18;92.29;0.00;0.00;0.62;;;;;5.80;1.20;;;;;;2273212;61;1032;-87
2020/12/10 06:12:59;35309.00;0.12;61.77;0.00;0.00;0.62;;;;;5.60;1.00;;;;;;2273203;61;1404;-87
2020/12/10 06:15:28;174344.00;0.58;301.75;34769.00;0.12;60.84;;;;;5.60;1.00;;;;;;2273305;61;1045;-86
2020/12/10 06:18:06;281960.00;0.94;486.91;51652.00;0.17;90.04;;;;;5.40;1.00;;;;;;2273193;61;1036;-87
2020/12/10 06:20:38;9541.00;0.03;17.15;0.00;0.00;0.62;;;;;5.00;1.80;;;;;;2273220;61;1105;-87
2020/12/10 06:23:34;34146.00;0.11;59.76;0.00;0.00;0.62;;;;;4.90;1.40;;;;;;2273132;61;1356;-86
2020/12/10 06:26:16;76362.00;0.25;132.75;0.00;0.00;0.62;;;;;4.90;1.10;;;;;;2273143;61;1910;-86
2020/12/10 06:28:42;49463.00;0.16;86.26;0.00;0.00;0.62;;;;;4.60;1.70;;;;;;2270571;61;1427;-85
2020/12/10 06:31:12;132482.00;0.44;229.61;0.00;0.00;0.62;;;;;4.40;2.90;;;;;;2273161;61;1205;-86
2020/12/10 06:33:40;130693.00;0.44;226.52;0.00;0.00;0.62;;;;;4.30;3.20;;;;;;2273152;61;1448;-86
2020/12/10 06:36:21;98729.00;0.33;171.38;0.00;0.00;0.62;;;;;4.70;3.10;;;;;;2273206;61;1093;-87
2020/12/10 06:38:48;85161.00;0.28;147.95;0.00;0.00;0.62;;;;;4.90;2.00;;;;;;2273210;61;1014;-85
2020/12/10 06:41:15;207355.00;0.69;358.58;0.00;0.00;0.62;;;;;4.70;1.70;;;;;;2273204;61;1059;-87
2020/12/10 06:43:41;150689.00;0.50;260.99;0.00;0.00;0.62;;;;;5.10;2.90;;;;;;2273215;61;1387;-87
2020/12/10 06:46:08;14114.00;0.05;25.08;0.00;0.00;0.62;;;;;5.40;1.40;;;;;;2273029;61;1998;-87
2020/12/10 06:48:40;194354.00;0.65;336.20;0.00;0.00;0.62;;;;;5.30;1.00;;;;;;2273069;61;932;-87
2020/12/10 06:51:15;259448.00;0.86;448.20;28309.00;0.09;49.66;;;;;4.50;1.60;;;;;;2272979;61;1050;-87
2020/12/10 06:54:08;72637.00;0.24;126.32;0.00;0.00;0.62;;;;;4.00;3.90;;;;;;2273151;61;1376;-86
2020/12/10 06:56:56;171491.00;0.57;296.83;0.00;0.00;0.62;;;;;3.90;5.30;;;;;;2273119;61;1009;-87
2020/12/10 06:59:37;136922.00;0.46;237.26;0.00;0.00;0.62;;;;;4.00;4.80;;;;;;2273005;61;1120;-84
2020/12/10 07:02:12;96176.00;0.32;166.97;0.00;0.00;0.62;;;;;4.30;4.70;;;;;;2272929;61;1423;-85
2020/12/10 07:04:47;258092.00;0.86;445.87;0.00;0.00;0.62;;;;;4.40;4.20;;;;;;2273049;61;1126;-84
2020/12/10 07:07:17;123934.00;0.41;214.87;0.00;0.00;0.62;;;;;4.20;4.00;;;;;;2273022;61;1990;-86
2020/12/10 07:09:51;164873.00;0.55;285.43;0.00;0.00;0.62;;;;;4.50;4.50;;;;;;2273110;61;1056;-85
2020/12/10 07:12:22;0.00;0.00;0.62;0.00;0.00;0.62;;;;;5.20;3.60;;;;;;2273087;61;1473;-87
2020/12/10 07:14:51;96376.00;0.32;167.32;0.00;0.00;0.62;;;;;5.70;1.10;;;;;;2273086;61;1123;-86
2020/12/10 07:17:19;39471.00;0.13;68.97;0.00;0.00;0.62;;;;;5.50;2.00;;;;;;2273086;61;1111;-85
2020/12/10 07:19:46;19148.00;0.06;33.79;0.00;0.00;0.62;;;;;5.40;1.00;;;;;;2273063;61;1115;-84
2020/12/10 07:22:12;154722.00;0.52;267.94;0.00;0.00;0.62;;;;;5.20;1.00;;;;;;2272954;61;1448;-86
2020/12/10 07:24:39;171075.00;0.57;296.12;0.00;0.00;0.62;;;;;5.30;1.00;;;;;;2273028;61;983;-86
2020/12/10 07:27:05;161840.00;0.54;280.21;0.00;0.00;0.62;;;;;5.20;2.00;;;;;;2272992;61;1994;-86
2020/12/10 07:29:32;103469.00;0.34;179.56;0.00;0.00;0.62;;;;;5.30;1.00;;;;;;2272820;61;1079;-87
2020/12/10 07:31:59;307981.00;1.03;531.64;22324.00;0.07;39.29;;;;;5.10;1.20;;;;;;2272793;61;1303;-86
2020/12/10 07:34:27;254373.00;0.85;439.47;0.00;0.00;0.62;;;;;4.70;1.00;;;;;;2273031;61;1032;-85
2020/12/10 07:36:55;151304.00;0.50;262.05;0.00;0.00;0.62;;;;;4.60;2.60;;;;;;2273024;61;1184;-86
2020/12/10 07:39:29;79452.00;0.26;138.09;0.00;0.00;0.62;;;;;4.80;1.60;;;;;;2273026;61;1261;-86
2020/12/10 07:41:56;264843.00;0.88;457.48;0.00;0.00;0.62;;;;;4.90;4.20;;;;;;2272919;61;1268;-88
2020/12/10 07:44:26;177760.00;0.59;307.63;0.00;0.00;0.62;;;;;5.70;3.00;;;;;;2272964;61;1054;-90
2020/12/10 07:46:53;203603.00;0.68;352.13;17236.00;0.06;30.48;;;;;6.30;1.10;;;;;;2273013;61;1996;-87
2020/12/10 07:49:27;325639.00;1.09;561.99;0.00;0.00;0.62;;;;;6.60;1.00;;;;;;2273044;61;1018;-86
2020/12/10 07:52:05;0.00;0.00;0.62;0.00;0.00;0.62;;;;;6.50;1.00;;;;;;2272940;61;1366;-87
2020/12/10 07:54:44;151108.00;0.50;261.72;0.00;0.00;0.62;;;;;6.60;1.00;;;;;;2272989;61;1092;-89
2020/12/10 07:57:29;343488.00;1.14;592.67;0.00;0.00;0.62;;;;;6.60;1.00;;;;;;2273006;61;1038;-87
2020/12/10 08:00:05;336598.00;1.12;580.83;0.00;0.00;0.62;;;;;6.40;1.00;;;;;;2273033;61;1054;-87
2020/12/10 08:02:50;215485.00;0.72;372.57;0.00;0.00;0.62;;;;;6.00;1.00;;;;;;2272957;61;1502;-87
2020/12/10 08:05:18;539515.00;1.80;929.89;101086.00;0.34;175.45;;;;;5.90;1.00;;;;;;2272957;61;1123;-86
2020/12/10 08:07:50;138261.00;0.46;239.57;0.00;0.00;0.62;;;;;5.30;1.00;;;;;;2272816;61;2009;-85
2020/12/10 08:10:21;344546.00;1.15;594.49;43385.00;0.14;75.74;;;;;4.90;1.00;;;;;;2272965;61;1013;-87
2020/12/10 08:13:12;254010.00;0.85;438.85;28935.00;0.10;50.74;;;;;5.20;1.00;;;;;;2272891;61;1368;-87
2020/12/10 08:15:40;382379.00;1.27;659.51;97980.00;0.33;170.08;;;;;5.50;1.00;;;;;;2272896;61;1105;-87
2020/12/10 08:18:08;662550.00;2.21;1142.35;102898.00;0.34;178.57;;;;;5.70;1.00;;;;;;2272857;61;1075;-85
2020/12/10 08:20:37;696315.00;2.32;1200.85;95400.00;0.32;165.63;;;;;5.50;1.00;;;;;;2272809;61;1139;-86
2020/12/10 08:23:03;970174.00;3.23;1679.72;97953.00;0.33;170.04;;;;;5.30;1.00;;;;;;2272805;61;1365;-86
2020/12/10 08:25:30;299477.00;1.00;517.02;0.00;0.00;0.62;;;;;5.30;1.00;;;;;;2272666;61;1735;-86
2020/12/10 08:27:56;371786.00;1.24;641.31;0.00;0.00;0.62;;;;;5.10;2.00;;;;;;2272807;61;1930;-86
2020/12/10 08:30:23;293466.00;0.98;506.69;0.00;0.00;0.62;;;;;5.20;1.00;;;;;;2272802;61;1059;-86
2020/12/10 08:32:51;360407.00;1.20;621.75;0.00;0.00;0.62;;;;;5.80;1.40;;;;;;2272824;61;1365;-88
2020/12/10 08:35:19;153888.00;0.51;266.51;0.00;0.00;0.62;;;;;6.20;1.00;;;;;;2272789;61;1134;-88
2020/12/10 08:37:47;77832.00;0.26;135.29;0.00;0.00;0.62;;;;;6.70;1.20;;;;;;2272802;61;1118;-88
2020/12/10 08:40:23;223463.00;0.74;386.30;0.00;0.00;0.62;;;;;6.60;1.00;;;;;;2272869;61;1107;-87
2020/12/10 08:42:50;90282.00;0.30;156.79;0.00;0.00;0.62;;;;;6.30;1.00;;;;;;2272733;61;1495;-86
2020/12/10 08:45:29;199846.00;0.67;345.66;0.00;0.00;0.62;;;;;6.00;1.00;;;;;;2272737;61;1112;-86
2020/12/10 08:47:58;456400.00;1.52;786.79;20770.00;0.07;36.60;;;;;5.50;1.00;;;;;;2272747;61;1926;-86
2020/12/10 08:50:26;294268.00;0.98;508.07;86364.00;0.29;150.03;;;;;5.30;1.00;;;;;;2272648;61;1063;-86
2020/12/10 08:53:05;316604.00;1.06;546.46;80983.00;0.27;140.74;;;;;5.50;1.00;;;;;;2272578;61;1399;-86
2020/12/10 08:55:44;602073.00;2.01;1037.80;90503.00;0.30;157.18;;;;;6.00;1.00;;;;;;2272728;61;1082;-88
2020/12/10 08:58:16;962891.00;3.21;1666.86;99827.00;0.33;173.27;;;;;5.80;1.00;;;;;;2272683;61;1020;-86
2020/12/10 09:00:43;613501.00;2.05;1057.54;99833.00;0.33;173.28;;;;;6.00;1.00;;;;;;2272598;61;1543;-86
2020/12/10 09:03:09;835604.00;2.79;1443.29;93873.00;0.31;162.99;;;;;5.70;1.00;;;;;;2272570;61;1419;-86
2020/12/10 09:05:36;719570.00;2.40;1241.19;92590.00;0.31;160.78;;;;;5.60;1.00;;;;;;2272526;61;1127;-87
2020/12/10 09:08:04;567770.00;1.89;978.60;92370.00;0.31;160.40;;;;;5.00;1.00;;;;;;2272561;61;2012;-87
2020/12/10 09:10:31;501826.00;1.67;864.97;94738.00;0.32;164.49;;;;;4.20;2.30;;;;;;2272760;61;1153;-86
2020/12/10 09:12:58;337834.00;1.13;582.95;89627.00;0.30;155.66;;;;;4.20;3.70;;;;;;2272675;61;1788;-85
2020/12/10 09:15:25;804104.00;2.68;1388.28;101189.00;0.34;175.62;;;;;4.70;3.70;;;;;;2272698;61;1122;-86
2020/12/10 09:17:52;554329.00;1.85;955.42;101785.00;0.34;176.65;;;;;5.00;2.20;;;;;;2272754;61;1044;-84
2020/12/10 09:20:19;328036.00;1.09;566.11;93997.00;0.31;163.21;;;;;4.90;1.20;;;;;;2272746;61;1123;-85
2020/12/10 09:22:46;520311.00;1.73;896.80;91264.00;0.30;158.49;;;;;5.00;1.00;;;;;;2272724;61;1380;-85
2020/12/10 09:25:13;624053.00;2.08;1075.77;86653.00;0.29;150.53;;;;;4.70;1.50;;;;;;2272763;61;919;-86
2020/12/10 09:27:40;727533.00;2.43;1255.02;95106.00;0.32;165.12;;;;;4.80;1.30;;;;;;2272689;61;2010;-85
2020/12/10 09:30:08;530838.00;1.77;914.94;90198.00;0.30;156.65;;;;;5.00;1.00;;;;;;2272650;61;1055;-85
2020/12/10 09:32:36;469702.00;1.57;809.68;83061.00;0.28;144.32;;;;;5.40;1.00;;;;;;2272545;61;1278;-85
2020/12/10 09:35:04;657695.00;2.19;1133.95;85923.00;0.29;149.27;;;;;5.50;1.00;;;;;;2272325;61;1043;-85
2020/12/10 09:37:31;437474.00;1.46;754.24;88455.00;0.29;153.64;;;;;5.40;1.00;;;;;;2272682;61;1131;-86
2020/12/10 09:39:57;692407.00;2.31;1194.07;86387.00;0.29;150.07;;;;;5.50;1.00;;;;;;2272643;61;1017;-87
2020/12/10 09:42:25;656516.00;2.19;1131.91;103833.00;0.35;180.19;;;;;6.00;1.00;;;;;;2272596;61;1568;-89
2020/12/10 09:44:51;853504.00;2.85;1474.60;102567.00;0.34;178.00;;;;;6.10;1.00;;;;;;2272738;61;946;-87
2020/12/10 09:47:18;546608.00;1.82;942.11;95982.00;0.32;166.64;;;;;6.00;1.00;;;;;;2272170;61;1916;-86
2020/12/10 09:49:44;919819.00;3.07;1590.96;128946.00;0.43;223.51;;;;;6.00;1.00;;;;;;2272143;61;1039;-88
2020/12/10 09:52:13;524823.00;1.75;904.57;93250.00;0.31;161.92;;;;;6.10;1.00;;;;;;2272668;61;1400;-87
2020/12/10 09:54:53;571182.00;1.90;984.49;82481.00;0.27;143.32;;;;;6.10;1.00;;;;;;2273105;61;1017;-88
2020/12/10 10:00:07;618960.00;2.06;1066.97;85430.00;0.28;148.42;;;;;6.00;1.00;;;;;;2264809;61;1008;-86
2020/12/10 10:02:33;481639.00;1.61;830.22;97678.00;0.33;169.56;;;;;5.90;1.00;;;;;;2264541;61;1399;-86
2020/12/10 10:05:00;336233.00;1.12;580.20;90447.00;0.30;157.08;;;;;5.70;1.00;;;;;;2254914;61;966;-87
2020/12/10 10:07:26;376547.00;1.26;649.49;80548.00;0.27;139.98;;;;;5.90;1.00;;;;;;2264848;61;1994;-88
2020/12/10 10:09:53;291594.00;0.97;503.47;87005.00;0.29;151.14;;;;;6.20;1.00;;;;;;2264858;61;1130;-84
2020/12/10 10:12:20;399963.00;1.33;689.74;94811.00;0.32;164.61;;;;;6.20;1.00;;;;;;2264773;61;1368;-87
2020/12/10 10:14:48;243728.00;0.81;421.16;84992.00;0.28;147.66;;;;;6.20;1.00;;;;;;2264810;61;1111;-85
2020/12/10 10:17:16;492674.00;1.64;849.21;87500.00;0.29;151.99;;;;;6.00;1.00;;;;;;2264760;61;1075;-85
2020/12/10 10:19:42;481344.00;1.60;829.71;86930.00;0.29;151.01;;;;;6.00;1.00;;;;;;2264653;61;1142;-88
2020/12/10 10:22:10;117029984.00;390.10;64925656.00;93587.00;0.31;162.50;;;;;6.10;1.00;;;;;;2254753;61;1295;-88
2020/12/10 10:24:36;444972.00;1.48;767.13;84081.00;0.28;146.09;;;;;6.30;1.00;;;;;;2264691;61;1048;-86
2020/12/10 10:27:03;734492.00;2.45;1267.10;152595.00;0.51;264.28;;;;;6.30;1.00;;;;;;2264719;61;1919;-87
2020/12/10 10:29:29;446418.00;1.49;769.62;72028.00;0.24;125.26;;;;;6.30;1.00;;;;;;2264589;61;1061;-86
2020/12/10 10:31:56;440770.00;1.47;759.91;87815.00;0.29;152.53;;;;;6.20;1.00;;;;;;2264589;61;1282;-85